createdAt,value
2018-05-04T00:00:03.369Z,101201.59
2018-05-04T00:02:32.659Z,101202.03
2018-05-04T00:05:01.463Z,101202.52
2018-05-04T00:07:30.088Z,101202.27
2018-05-04T00:09:58.713Z,101207.30
2018-05-04T00:12:27.336Z,101204.34
2018-05-04T00:14:58.379Z,101207.77
2018-05-04T00:17:29.906Z,101199.53
2018-05-04T00:19:58.545Z,101203.08
2018-05-04T00:22:27.199Z,101205.33
2018-05-04T00:24:56.269Z,101210.45
2018-05-04T00:27:25.306Z,101205.87
2018-05-04T00:29:54.365Z,101202.48
2018-05-04T00:32:23.172Z,101205.67
2018-05-04T00:34:52.252Z,101200.54
2018-05-04T00:37:21.328Z,101209.83
2018-05-04T00:39:50.179Z,101200.25
2018-05-04T00:42:19.171Z,101205.61
2018-05-04T00:44:48.572Z,101203.47
2018-05-04T00:47:17.603Z,101212.78
2018-05-04T00:49:46.627Z,101212.78
2018-05-04T00:52:15.707Z,101215.85
2018-05-04T00:54:44.807Z,101218.06
2018-05-04T00:57:13.543Z,101217.20
2018-05-04T00:59:42.541Z,101219.00
2018-05-04T01:02:11.765Z,101228.72
2018-05-04T01:04:40.753Z,101226.58
2018-05-04T01:07:11.099Z,101220.43
2018-05-04T01:09:40.144Z,101222.62
2018-05-04T01:12:09.150Z,101222.05
2018-05-04T01:14:38.128Z,101216.88
2018-05-04T01:17:07.180Z,101226.27
2018-05-04T01:19:36.906Z,101226.00
2018-05-04T01:22:06.215Z,101230.04
2018-05-04T01:24:35.309Z,101226.63
2018-05-04T01:27:04.571Z,101229.87
2018-05-04T01:29:33.510Z,101230.78
2018-05-04T01:32:03.071Z,101222.89
2018-05-04T01:34:32.337Z,101226.05
2018-05-04T01:37:00.992Z,101227.88
2018-05-04T01:39:29.904Z,101224.35
2018-05-04T01:41:59.057Z,101226.10
2018-05-04T01:44:28.047Z,101230.00
2018-05-04T01:46:56.780Z,101228.14
2018-05-04T01:49:25.649Z,101227.17
2018-05-04T01:51:54.563Z,101227.03
2018-05-04T01:54:23.681Z,101226.52
2018-05-04T01:56:52.803Z,101227.73
2018-05-04T01:59:21.615Z,101231.56
2018-05-04T02:01:50.505Z,101230.97
2018-05-04T02:04:19.027Z,101237.97
2018-05-04T02:06:47.688Z,101233.52
2018-05-04T02:09:16.294Z,101236.53
2018-05-04T02:11:44.940Z,101237.79
2018-05-04T02:14:13.555Z,101244.77
2018-05-04T02:16:42.208Z,101235.90
2018-05-04T02:19:10.823Z,101240.23
2018-05-04T02:21:39.479Z,101234.49
2018-05-04T02:24:08.083Z,101238.84
2018-05-04T02:26:36.739Z,101241.00
2018-05-04T02:29:05.366Z,101237.91
2018-05-04T02:31:34.006Z,101237.84
2018-05-04T02:34:02.621Z,101234.69
2018-05-04T02:36:31.252Z,101237.72
2018-05-04T02:38:59.857Z,101240.77
2018-05-04T02:41:28.502Z,101236.41
2018-05-04T02:43:57.641Z,101235.91
2018-05-04T02:46:29.814Z,101239.48
2018-05-04T02:48:58.794Z,101245.19
2018-05-04T02:51:27.424Z,101244.64
2018-05-04T02:53:56.584Z,101246.81
2018-05-04T02:56:25.266Z,101247.23
2018-05-04T02:58:53.879Z,101252.98
2018-05-04T03:01:22.542Z,101253.66
2018-05-04T03:03:51.143Z,101255.50
2018-05-04T03:06:19.766Z,101252.43
2018-05-04T03:08:48.413Z,101253.31
2018-05-04T03:11:17.932Z,101249.14
2018-05-04T03:13:47.047Z,101244.20
2018-05-04T03:16:15.664Z,101244.75
2018-05-04T03:18:44.352Z,101257.50
2018-05-04T03:21:12.993Z,101255.26
2018-05-04T03:23:41.634Z,101257.84
2018-05-04T03:26:10.262Z,101267.02
2018-05-04T03:28:39.171Z,101270.63
2018-05-04T03:31:08.113Z,101274.14
2018-05-04T03:33:37.234Z,101273.86
2018-05-04T03:36:06.258Z,101272.78
2018-05-04T03:38:35.426Z,101272.85
2018-05-04T03:41:04.217Z,101272.95
2018-05-04T03:43:33.333Z,101276.97
2018-05-04T03:46:02.477Z,101277.86
2018-05-04T03:48:31.398Z,101275.75
2018-05-04T03:51:00.263Z,101275.28
2018-05-04T03:53:29.147Z,101283.21
2018-05-04T03:55:58.255Z,101282.32
2018-05-04T03:59:04.014Z,101280.91
2018-05-04T04:02:09.553Z,101272.64
2018-05-04T04:04:40.181Z,101283.24
2018-05-04T04:09:59.228Z,101277.31
2018-05-04T04:12:28.471Z,101274.97
2018-05-04T04:14:57.059Z,101273.58
2018-05-04T04:17:26.525Z,101277.09
2018-05-04T04:19:55.369Z,101284.53
2018-05-04T04:22:24.113Z,101278.34
2018-05-04T04:24:52.778Z,101278.25
2018-05-04T04:27:22.460Z,101279.26
2018-05-04T04:29:56.265Z,101285.48
2018-05-04T04:32:26.870Z,101288.55
2018-05-04T04:34:56.234Z,101290.89
2018-05-04T04:37:25.030Z,101296.28
2018-05-04T04:39:54.082Z,101299.48
2018-05-04T04:42:23.183Z,101299.12
2018-05-04T04:44:52.340Z,101295.66
2018-05-04T04:47:21.810Z,101298.52
2018-05-04T04:49:50.913Z,101304.19
2018-05-04T04:52:21.348Z,101302.20
2018-05-04T04:54:52.117Z,101298.98
2018-05-04T05:00:15.380Z,101296.05
2018-05-04T05:02:44.583Z,101296.24
2018-05-04T05:05:15.120Z,101304.36
2018-05-04T05:07:46.409Z,101305.53
2018-05-04T05:10:15.583Z,101312.22
2018-05-04T05:12:48.548Z,101318.13
2018-05-04T05:26:36.942Z,101329.94
2018-05-04T05:31:56.816Z,101331.96
2018-05-04T05:45:46.640Z,101340.42
2018-05-04T05:48:28.966Z,101341.50
2018-05-04T05:53:48.738Z,101344.47
2018-05-04T06:18:38.686Z,101362.63
2018-05-04T06:24:10.733Z,101361.41
2018-05-04T06:26:40.143Z,101361.77
2018-05-04T06:57:01.721Z,101373.72
2018-05-04T07:08:00.600Z,101380.70
2018-05-04T07:16:28.981Z,101376.37
2018-05-04T07:18:59.202Z,101372.60
2018-05-04T07:21:30.210Z,101373.48
2018-05-04T07:23:59.249Z,101375.98
2018-05-04T07:26:27.857Z,101378.34
2018-05-04T07:29:04.128Z,101382.61
2018-05-04T07:31:32.751Z,101379.58
2018-05-04T07:34:03.645Z,101378.95
2018-05-04T07:39:19.925Z,101379.41
2018-05-04T07:41:51.034Z,101381.84
2018-05-04T07:44:27.285Z,101379.28
2018-05-04T07:46:59.960Z,101378.46
2018-05-04T08:06:38.432Z,101373.75
2018-05-04T08:09:08.527Z,101379.44
2018-05-04T08:14:29.652Z,101373.59
2018-05-04T08:17:11.984Z,101370.12
2018-05-04T08:19:41.123Z,101371.43
2018-05-04T08:22:20.124Z,101372.11
2018-05-04T08:24:54.308Z,101382.77
2018-05-04T08:27:23.997Z,101374.73
2018-05-04T08:29:53.671Z,101378.34
2018-05-04T08:40:59.038Z,101367.02
2018-05-04T08:49:03.434Z,101367.80
2018-05-04T08:51:47.658Z,101377.89
2018-05-04T08:57:11.712Z,101370.89
2018-05-04T09:02:40.391Z,101369.77
2018-05-04T09:08:00.806Z,101375.14
2018-05-04T09:16:08.624Z,101374.26
2018-05-04T09:18:38.822Z,101361.20
2018-05-04T09:21:09.680Z,101365.83
2018-05-04T09:23:38.623Z,101373.80
2018-05-04T09:26:14.944Z,101365.27
2018-05-04T09:28:45.784Z,101363.13
2018-05-04T09:31:14.378Z,101367.27
2018-05-04T09:33:43.085Z,101363.38
2018-05-04T09:36:14.382Z,101354.72
2018-05-04T09:38:50.982Z,101351.18
2018-05-04T09:41:19.728Z,101355.97
2018-05-04T09:43:52.539Z,101353.11
2018-05-04T09:46:21.741Z,101350.97
2018-05-04T09:48:58.617Z,101365.48
2018-05-04T09:51:31.689Z,101353.84
2018-05-04T09:54:04.104Z,101351.87
2018-05-04T09:56:36.857Z,101352.08
2018-05-04T10:01:57.247Z,101345.81
2018-05-04T10:04:28.172Z,101352.84
2018-05-04T10:09:44.433Z,101349.26
2018-05-04T10:12:17.032Z,101347.58
2018-05-04T10:17:51.716Z,101343.45
2018-05-04T10:20:29.520Z,101343.03
2018-05-04T10:34:14.491Z,101335.38
2018-05-04T10:45:05.337Z,101323.10
2018-05-04T10:47:36.937Z,101326.13
2018-05-04T10:55:49.172Z,101322.61
2018-05-04T10:58:20.621Z,101318.29
2018-05-04T11:00:52.343Z,101322.90
2018-05-04T11:03:21.370Z,101320.91
2018-05-04T11:05:50.472Z,101327.09
2018-05-04T11:08:20.076Z,101323.54
2018-05-04T11:10:57.261Z,101319.09
2018-05-04T11:13:28.404Z,101322.62
2018-05-04T11:15:58.772Z,101321.58
2018-05-04T11:18:30.727Z,101324.34
2018-05-04T11:23:49.231Z,101308.64
2018-05-04T11:26:18.256Z,101312.55
2018-05-04T11:28:47.514Z,101308.17
2018-05-04T11:31:18.288Z,101315.41
2018-05-04T11:33:46.920Z,101315.72
2018-05-04T11:36:15.563Z,101303.67
2018-05-04T11:38:52.434Z,101317.09
2018-05-04T11:41:24.301Z,101314.79
2018-05-04T11:43:53.914Z,101319.75
2018-05-04T11:46:22.520Z,101319.97
2018-05-04T11:48:52.421Z,101318.01
2018-05-04T11:51:22.347Z,101313.88
2018-05-04T11:53:51.294Z,101316.91
2018-05-04T11:56:22.641Z,101312.86
2018-05-04T11:58:51.436Z,101318.55
2018-05-04T12:01:21.921Z,101316.63
2018-05-04T12:03:52.203Z,101314.63
2018-05-04T12:06:22.115Z,101313.99
2018-05-04T12:08:51.585Z,101317.04
2018-05-04T12:11:28.052Z,101316.42
2018-05-04T12:13:57.646Z,101306.53
2018-05-04T12:16:26.822Z,101309.95
2018-05-04T12:18:58.858Z,101315.47
2018-05-04T12:21:27.703Z,101309.94
2018-05-04T12:23:57.552Z,101306.95
2018-05-04T12:26:26.936Z,101308.80
2018-05-04T12:28:56.268Z,101306.19
2018-05-04T12:31:25.719Z,101305.21
2018-05-04T12:33:54.994Z,101309.11
2018-05-04T12:36:24.907Z,101304.86
2018-05-04T12:38:56.783Z,101303.16
2018-05-04T12:41:25.518Z,101304.70
2018-05-04T12:43:57.724Z,101301.85
2018-05-04T12:46:26.978Z,101292.98
2018-05-04T12:48:56.329Z,101301.45
2018-05-04T12:51:25.428Z,101301.42
2018-05-04T12:53:54.456Z,101298.99
2018-05-04T12:56:23.234Z,101301.09
2018-05-04T12:58:52.822Z,101290.22
2018-05-04T13:01:23.372Z,101304.08
2018-05-04T13:03:52.688Z,101293.41
2018-05-04T13:06:21.475Z,101292.53
2018-05-04T13:08:50.591Z,101297.67
2018-05-04T13:11:19.015Z,101298.55
2018-05-04T13:13:47.660Z,101293.91
2018-05-04T13:16:16.677Z,101284.17
2018-05-04T13:18:45.293Z,101286.16
2018-05-04T13:21:13.899Z,101284.34
2018-05-04T13:23:42.555Z,101277.70
2018-05-04T13:26:12.461Z,101278.02
2018-05-04T13:28:41.128Z,101288.15
2018-05-04T13:31:09.754Z,101279.08
2018-05-04T13:33:38.413Z,101287.51
2018-05-04T13:36:07.014Z,101281.09
2018-05-04T13:38:35.714Z,101287.89
2018-05-04T13:41:04.272Z,101282.02
2018-05-04T13:43:32.922Z,101268.15
2018-05-04T13:46:01.541Z,101274.26
2018-05-04T13:48:30.180Z,101277.91
2018-05-04T13:50:58.845Z,101277.05
2018-05-04T13:53:27.485Z,101273.93
2018-05-04T13:55:56.129Z,101278.23
2018-05-04T13:58:24.729Z,101271.88
2018-05-04T14:00:53.363Z,101268.34
2018-05-04T14:03:28.088Z,101278.66
2018-05-04T14:06:00.377Z,101265.92
2018-05-04T14:08:41.667Z,101264.89
2018-05-04T14:11:13.644Z,101257.88
2018-05-04T14:13:45.016Z,101267.31
2018-05-04T14:19:01.209Z,101262.22
2018-05-04T14:21:30.318Z,101256.67
2018-05-04T14:23:58.963Z,101264.66
2018-05-04T14:26:27.619Z,101256.65
2018-05-04T14:28:56.254Z,101254.39
2018-05-04T14:31:25.916Z,101264.86
2018-05-04T14:33:55.227Z,101265.98
2018-05-04T14:36:24.285Z,101262.47
2018-05-04T14:38:53.036Z,101262.35
2018-05-04T14:41:29.457Z,101260.41
2018-05-04T14:44:00.183Z,101255.75
2018-05-04T14:46:36.570Z,101255.38
2018-05-04T14:49:05.300Z,101258.72
2018-05-04T14:51:34.096Z,101257.33
2018-05-04T14:54:03.355Z,101260.02
2018-05-04T14:56:32.238Z,101261.28
2018-05-04T14:59:01.831Z,101258.95
2018-05-04T15:01:31.023Z,101262.11
2018-05-04T15:04:01.586Z,101262.45
2018-05-04T15:06:30.243Z,101262.85
2018-05-04T15:08:59.350Z,101262.95
2018-05-04T15:11:28.290Z,101255.68
2018-05-04T15:13:57.305Z,101263.23
2018-05-04T15:16:26.307Z,101262.55
2018-05-04T15:18:55.324Z,101256.77
2018-05-04T15:21:24.180Z,101255.16
2018-05-04T15:23:54.398Z,101252.25
2018-05-04T15:26:27.134Z,101258.51
2018-05-04T15:28:56.756Z,101258.61
2018-05-04T15:31:25.681Z,101267.23
2018-05-04T15:33:54.501Z,101265.88
2018-05-04T15:36:26.721Z,101265.78
2018-05-04T15:38:55.944Z,101262.29
2018-05-04T15:41:24.810Z,101263.00
2018-05-04T15:43:53.771Z,101263.87
2018-05-04T15:46:22.545Z,101263.98
2018-05-04T15:49:16.625Z,101265.17
2018-05-04T15:52:03.506Z,101261.17
2018-05-04T15:54:32.212Z,101253.43
2018-05-04T15:57:03.444Z,101257.70
2018-05-04T15:59:34.087Z,101255.00
2018-05-04T16:02:02.794Z,101253.47
2018-05-04T16:04:31.693Z,101252.11
2018-05-04T16:07:00.607Z,101252.97
2018-05-04T16:09:29.590Z,101258.42
2018-05-04T16:11:58.386Z,101258.82
2018-05-04T16:14:29.822Z,101253.80
2018-05-04T16:17:01.100Z,101251.22
2018-05-04T16:19:29.871Z,101254.70
2018-05-04T16:22:02.499Z,101245.80
2018-05-04T16:24:31.560Z,101247.14
2018-05-04T16:27:00.260Z,101245.98
2018-05-04T16:29:28.882Z,101250.78
2018-05-04T16:31:58.306Z,101254.63
2018-05-04T16:34:27.175Z,101255.66
2018-05-04T16:36:56.036Z,101247.16
2018-05-04T16:39:24.833Z,101246.73
2018-05-04T16:41:53.807Z,101251.50
2018-05-04T16:44:30.190Z,101252.98
2018-05-04T16:47:16.875Z,101253.81
2018-05-04T16:49:45.524Z,101250.41
2018-05-04T16:52:14.189Z,101258.61
2018-05-04T16:54:45.313Z,101254.53
2018-05-04T16:57:17.847Z,101251.58
2018-05-04T16:59:47.286Z,101257.89
2018-05-04T17:02:17.183Z,101260.91
2018-05-04T17:04:49.743Z,101257.88
2018-05-04T17:07:18.570Z,101266.95
2018-05-04T17:12:39.356Z,101258.19
2018-05-04T17:15:08.366Z,101262.56
2018-05-04T17:17:43.136Z,101268.08
2018-05-04T17:20:17.001Z,101268.77
2018-05-04T17:22:47.845Z,101274.55
2018-05-04T17:25:17.504Z,101278.38
2018-05-04T17:27:46.411Z,101277.53
2018-05-04T17:30:17.505Z,101273.34
2018-05-04T17:32:46.485Z,101278.16
2018-05-04T17:35:15.438Z,101280.34
2018-05-04T17:37:44.334Z,101283.42
2018-05-04T17:40:17.742Z,101283.05
2018-05-04T17:42:46.779Z,101286.10
2018-05-04T17:45:16.649Z,101290.08
2018-05-04T17:47:45.734Z,101292.17
2018-05-04T17:50:15.452Z,101297.24
2018-05-04T17:52:46.484Z,101303.61
2018-05-04T17:55:17.012Z,101309.53
2018-05-04T17:57:45.988Z,101298.68
2018-05-04T18:00:16.680Z,101306.41
2018-05-04T18:02:45.371Z,101312.33
2018-05-04T18:05:14.124Z,101307.36
2018-05-04T18:07:42.837Z,101317.95
2018-05-04T18:10:11.555Z,101315.11
2018-05-04T18:12:40.456Z,101318.41
2018-05-04T18:15:09.142Z,101315.94
2018-05-04T18:17:38.190Z,101318.25
2018-05-04T18:20:07.464Z,101321.27
2018-05-04T18:22:52.461Z,101321.89
2018-05-04T18:25:22.003Z,101330.17
2018-05-04T18:28:00.225Z,101332.97
2018-05-04T18:33:18.092Z,101335.95
2018-05-04T18:41:22.846Z,101348.48
2018-05-04T18:43:51.656Z,101353.97
2018-05-04T18:46:21.821Z,101360.29
2018-05-04T18:48:52.571Z,101355.55
2018-05-04T18:51:22.537Z,101361.55
2018-05-04T18:53:51.437Z,101360.88
2018-05-04T18:56:21.510Z,101373.38
2018-05-04T18:58:50.537Z,101376.09
2018-05-04T19:01:28.995Z,101376.40
2018-05-04T19:03:57.839Z,101388.71
2018-05-04T19:06:26.667Z,101389.70
2018-05-04T19:08:56.471Z,101389.64
2018-05-04T19:11:27.525Z,101396.48
2018-05-04T19:13:56.163Z,101399.01
2018-05-04T19:16:25.960Z,101403.17
2018-05-04T19:18:54.614Z,101410.06
2018-05-04T19:21:23.462Z,101417.16
2018-05-04T19:23:52.183Z,101411.94
2018-05-04T19:26:21.818Z,101411.72
2018-05-04T19:28:50.508Z,101420.86
2018-05-04T19:31:19.766Z,101417.53
2018-05-04T19:33:50.065Z,101424.14
2018-05-04T19:36:18.703Z,101423.63
2018-05-04T19:38:51.919Z,101426.55
2018-05-04T19:41:20.560Z,101431.45
2018-05-04T19:43:49.216Z,101433.39
2018-05-04T19:46:19.827Z,101434.11
2018-05-04T19:48:48.473Z,101434.45
2018-05-04T19:51:34.857Z,101442.31
2018-05-04T19:54:03.569Z,101444.27
2018-05-04T19:56:33.099Z,101438.86
2018-05-04T19:59:05.663Z,101443.31
2018-05-04T20:01:34.388Z,101440.72
2018-05-04T20:04:05.147Z,101444.04
2018-05-04T20:06:33.741Z,101445.78
2018-05-04T20:09:06.657Z,101447.32
2018-05-04T20:11:35.448Z,101451.48
2018-05-04T20:14:04.073Z,101449.20
2018-05-04T20:16:32.897Z,101455.44
2018-05-04T20:19:01.627Z,101453.75
2018-05-04T20:21:30.143Z,101459.76
2018-05-04T20:23:59.378Z,101456.20
2018-05-04T20:26:28.512Z,101464.37
2018-05-04T20:28:57.615Z,101464.36
2018-05-04T20:31:26.474Z,101469.60
2018-05-04T20:33:55.659Z,101467.61
2018-05-04T20:36:41.209Z,101474.17
2018-05-04T20:39:10.800Z,101475.09
2018-05-04T20:41:39.829Z,101478.86
2018-05-04T20:44:08.574Z,101477.72
2018-05-04T20:46:37.479Z,101481.23
2018-05-04T20:49:06.794Z,101484.96
2018-05-04T20:51:35.841Z,101477.90
2018-05-04T20:54:04.701Z,101485.33
2018-05-04T20:56:33.342Z,101493.57
2018-05-04T20:59:13.089Z,101491.75
2018-05-04T21:01:54.933Z,101492.91
2018-05-04T21:04:23.583Z,101495.88
2018-05-04T21:06:52.781Z,101499.45
2018-05-04T21:09:31.503Z,101503.36
2018-05-04T21:12:09.995Z,101496.03
2018-05-04T21:14:39.893Z,101504.77
2018-05-04T21:17:27.422Z,101502.33
2018-05-04T21:19:58.849Z,101512.38
2018-05-04T21:25:15.000Z,101508.52
2018-05-04T21:27:43.676Z,101508.23
2018-05-04T21:30:12.308Z,101510.67
2018-05-04T21:35:31.052Z,101515.58
2018-05-04T21:38:00.723Z,101513.16
2018-05-04T21:40:33.185Z,101513.73
2018-05-04T21:43:01.848Z,101517.12
2018-05-04T21:54:01.090Z,101528.73
2018-05-04T21:59:19.568Z,101527.82
2018-05-04T22:02:06.806Z,101528.03
2018-05-04T22:04:54.520Z,101536.02
2018-05-04T22:07:40.441Z,101536.88
2018-05-04T22:10:11.137Z,101536.36
2018-05-04T22:15:44.869Z,101541.86
2018-05-04T22:35:01.213Z,101551.96
2018-05-04T22:40:19.407Z,101563.41
2018-05-04T22:42:48.373Z,101569.33
2018-05-04T22:45:17.059Z,101567.16
2018-05-04T22:47:48.903Z,101560.33
2018-05-04T23:04:24.750Z,101571.33
